Time;durP1;ratioP1;P1;durP2;ratioP2;P2;SDS_P1;SDS_P2;PMS_P1;PMS_P2;Temp;Humidity;BMP_temperature;BMP_pressure;BME280_temperature;BME280_humidity;BME280_pressure;Samples;Min_cycle;Max_cycle;Signal;HPM_P1;HPM_P2
2021/01/08 00:00:10;;;;;;;47.48;26.93;;;;;;;2.15;89.15;99714.64;1657822;84;21264;-70
2021/01/08 00:02:36;;;;;;;47.93;25.62;;;;;;;2.02;89.83;99719.92;1658649;84;21559;-70
2021/01/08 00:05:03;;;;;;;45.28;26.62;;;;;;;2.03;90.21;99720.74;1657970;84;21206;-70
2021/01/08 00:07:34;;;;;;;45.87;24.03;;;;;;;1.90;90.31;99707.80;1641149;84;21720;-71
2021/01/08 00:10:00;;;;;;;41.23;23.10;;;;;;;1.90;90.58;99712.52;1658381;84;21457;-70
2021/01/08 00:12:34;;;;;;;51.13;25.32;;;;;;;1.85;90.87;99710.73;1657256;84;21685;-70
2021/01/08 00:15:00;;;;;;;49.50;27.20;;;;;;;1.65;91.64;99712.16;1657987;84;22134;-69
2021/01/08 00:17:29;;;;;;;52.87;29.47;;;;;;;1.52;92.23;99711.36;1657952;84;25621;-70
2021/01/08 00:19:55;;;;;;;57.23;31.23;;;;;;;1.53;92.66;99718.23;1658712;84;21492;-70
2021/01/08 00:22:21;;;;;;;49.40;26.75;;;;;;;1.49;92.99;99713.73;1657307;84;21633;-72
2021/01/08 00:24:47;;;;;;;49.33;27.42;;;;;;;1.61;92.76;99716.73;1651226;85;26946;-71
2021/01/08 00:27:13;;;;;;;54.73;28.60;;;;;;;1.79;92.46;99708.57;1650425;85;21321;-70
2021/01/08 00:29:40;;;;;;;50.63;27.13;;;;;;;1.77;91.72;99711.28;1651453;85;25507;-70
2021/01/08 00:32:05;;;;;;;51.33;27.90;;;;;;;1.72;91.70;99704.73;1651785;85;21219;-71
2021/01/08 00:34:31;;;;;;;50.50;26.10;;;;;;;1.83;92.14;99714.38;1652896;85;29042;-69
2021/01/08 00:36:57;;;;;;;54.13;28.97;;;;;;;1.81;91.82;99703.25;1652208;85;27138;-71
2021/01/08 00:39:23;;;;;;;53.50;29.70;;;;;;;1.70;92.06;99711.83;1654682;85;21239;-73
2021/01/08 00:41:49;;;;;;;55.60;29.47;;;;;;;1.55;92.67;99709.36;1651848;85;25502;-72
2021/01/08 00:44:15;;;;;;;52.87;28.83;;;;;;;1.69;92.69;99714.88;1655910;85;20977;-70
2021/01/08 00:46:46;;;;;;;46.37;25.88;;;;;;;1.71;92.22;99714.33;1657658;85;21776;-69
2021/01/08 00:49:12;;;;;;;52.40;28.38;;;;;;;1.71;92.22;99713.02;1651360;85;21629;-70
2021/01/08 00:51:38;;;;;;;56.80;30.57;;;;;;;1.53;92.79;99716.94;1654418;85;21253;-70
2021/01/08 00:54:04;;;;;;;55.98;30.17;;;;;;;1.40;93.50;99716.50;1652753;85;21183;-70
2021/01/08 00:56:30;;;;;;;58.70;30.23;;;;;;;1.35;93.92;99718.61;1650929;86;21215;-71
2021/01/08 00:58:56;;;;;;;55.83;31.10;;;;;;;1.43;94.15;99721.49;1651200;85;26733;-70
2021/01/08 01:01:22;;;;;;;52.10;28.38;;;;;;;1.43;93.98;99726.70;1651990;85;21156;-69
2021/01/08 01:03:48;;;;;;;58.37;31.10;;;;;;;1.46;93.70;99724.80;1650184;85;21231;-71
2021/01/08 01:06:31;;;;;;;60.20;34.00;;;;;;;1.42;94.08;99731.53;1652094;85;21557;-72
2021/01/08 01:08:57;;;;;;;54.50;29.27;;;;;;;1.37;94.55;99729.73;1651196;86;21187;-70
2021/01/08 01:11:24;;;;;;;58.90;31.23;;;;;;;1.51;94.17;99733.11;1651557;85;21216;-70
2021/01/08 01:13:51;;;;;;;62.70;32.57;;;;;;;1.52;94.14;99730.88;1651581;86;21228;-70
2021/01/08 01:16:18;;;;;;;58.23;30.60;;;;;;;1.56;94.28;99734.94;1652026;86;21919;-70
2021/01/08 01:18:45;;;;;;;51.55;27.27;;;;;;;1.51;94.06;99731.81;1652637;85;21191;-70
2021/01/08 01:21:11;;;;;;;51.58;28.02;;;;;;;1.52;94.11;99730.40;1652055;86;21629;-70
2021/01/08 01:23:36;;;;;;;61.40;32.50;;;;;;;1.48;94.37;99738.56;1652211;84;26903;-70
2021/01/08 01:26:04;;;;;;;57.70;30.10;;;;;;;1.42;94.81;99733.31;1651302;86;27193;-71
2021/01/08 01:28:30;;;;;;;60.30;30.05;;;;;;;1.43;94.90;99727.99;1650151;85;26927;-70
2021/01/08 01:30:56;;;;;;;59.53;31.45;;;;;;;1.41;95.07;99727.28;1650635;86;21191;-70
2021/01/08 01:33:21;;;;;;;56.83;30.57;;;;;;;1.51;95.27;99729.20;1651580;86;20957;-70
2021/01/08 01:35:47;;;;;;;59.87;31.37;;;;;;;1.56;94.87;99727.95;1651361;85;26811;-70
2021/01/08 01:38:13;;;;;;;61.20;31.40;;;;;;;1.36;94.98;99735.86;1651365;86;23678;-70
2021/01/08 01:40:39;;;;;;;54.03;28.92;;;;;;;1.37;95.08;99724.52;1649965;85;21231;-71
2021/01/08 01:43:05;;;;;;;58.77;31.87;;;;;;;1.36;94.95;99726.75;1651814;86;21117;-70
2021/01/08 01:45:31;;;;;;;54.93;29.82;;;;;;;1.42;95.26;99725.02;1651407;86;21243;-70
2021/01/08 01:47:57;;;;;;;53.30;28.63;;;;;;;1.37;94.83;99727.13;1651475;86;26817;-70
2021/01/08 01:50:23;;;;;;;59.53;29.67;;;;;;;1.37;94.71;99721.10;1651241;86;23768;-70
2021/01/08 01:52:49;;;;;;;50.90;30.10;;;;;;;1.41;94.58;99723.38;1651370;86;21585;-70
2021/01/08 01:55:14;;;;;;;56.37;30.63;;;;;;;1.43;94.35;99723.27;1651336;86;22609;-71
2021/01/08 01:57:41;;;;;;;56.10;29.70;;;;;;;1.49;94.53;99725.44;1651660;86;21040;-71
2021/01/08 02:00:08;;;;;;;54.45;29.42;;;;;;;1.51;94.00;99720.09;1651615;86;21207;-71
2021/01/08 02:02:48;;;;;;;54.25;27.45;;;;;;;1.53;93.94;99723.44;1614777;88;21194;-71
2021/01/08 02:05:14;;;;;;;53.87;30.40;;;;;;;1.33;94.40;99719.16;1572873;90;21629;-70
2021/01/08 02:07:51;;;;;;;51.15;28.50;;;;;;;1.34;94.68;99716.94;1588361;89;21257;-69
2021/01/08 02:10:17;;;;;;;58.68;31.87;;;;;;;1.37;94.52;99716.72;1588345;89;28404;-69
2021/01/08 02:12:43;;;;;;;61.17;32.10;;;;;;;1.32;94.91;99714.92;1597746;88;27322;-69
2021/01/08 02:15:09;;;;;;;50.17;26.17;;;;;;;1.37;94.66;99710.22;1586948;89;25620;-69
2021/01/08 02:17:35;;;;;;;48.90;27.05;;;;;;;1.25;94.59;99720.17;1597463;88;21205;-69
2021/01/08 02:20:05;;;;;;;49.77;26.73;;;;;;;1.34;94.60;99709.13;1586834;89;21588;-69
2021/01/08 02:22:42;;;;;;;57.80;30.10;;;;;;;1.46;94.18;99717.00;1597739;88;21729;-70
2021/01/08 02:25:25;;;;;;;52.43;27.85;;;;;;;1.46;93.85;99711.80;1596562;89;21253;-70
2021/01/08 02:28:21;;;;;;;56.60;30.37;;;;;;;1.41;93.83;99716.02;1595871;88;21276;-70
2021/01/08 02:30:47;;;;;;;52.35;27.75;;;;;;;1.34;93.83;99711.73;1596651;89;21233;-70
2021/01/08 02:33:13;;;;;;;49.97;27.07;;;;;;;1.32;93.98;99721.42;1597023;89;22568;-71
2021/01/08 02:35:40;;;;;;;52.90;27.20;;;;;;;1.30;94.36;99718.08;1597192;89;21239;-70
2021/01/08 02:38:06;;;;;;;59.80;31.95;;;;;;;1.35;94.04;99716.00;1596493;89;21234;-71
2021/01/08 02:40:32;;;;;;;50.70;27.20;;;;;;;1.38;94.05;99720.99;1598535;88;21242;-71
2021/01/08 02:43:01;;;;;;;57.10;29.50;;;;;;;1.35;93.80;99716.00;1597000;89;22041;-71
2021/01/08 02:45:26;;;;;;;49.50;28.50;;;;;;;1.32;93.98;99727.92;1596521;88;21617;-71
2021/01/08 02:47:52;;;;;;;56.47;29.33;;;;;;;1.36;94.01;99718.13;1599425;88;21068;-71
2021/01/08 02:50:18;;;;;;;56.83;30.83;;;;;;;1.34;93.77;99722.14;1605281;88;24844;-71
2021/01/08 02:52:45;;;;;;;53.63;29.30;;;;;;;1.33;94.27;99721.77;1596749;89;26545;-70
2021/01/08 02:55:12;;;;;;;;;;;;;;;1.38;94.40;99722.30;1598982;89;21659;-70
2021/01/08 02:57:38;;;;;;;57.03;27.80;;;;;;;1.42;94.18;99725.02;1596893;89;20630;-70
2021/01/08 03:00:05;;;;;;;53.02;28.23;;;;;;;1.48;93.81;99723.77;1597001;89;21676;-71
2021/01/08 03:02:31;;;;;;;48.58;25.43;;;;;;;1.49;93.58;99721.98;1596941;89;21250;-71
2021/01/08 03:04:57;;;;;;;52.90;28.65;;;;;;;1.41;93.50;99731.63;1596706;88;21694;-71
2021/01/08 03:07:25;;;;;;;47.90;26.80;;;;;;;1.54;93.48;99727.69;1597132;88;21580;-71
2021/01/08 03:09:50;;;;;;;53.35;29.18;;;;;;;1.42;93.19;99731.53;1562446;89;21189;-71
2021/01/08 03:12:16;;;;;;;57.17;30.50;;;;;;;1.54;93.53;99728.98;1596965;88;20988;-71
2021/01/08 03:14:47;;;;;;;57.73;30.53;;;;;;;1.55;93.40;99728.88;1596768;88;27356;-71
2021/01/08 03:17:13;;;;;;;58.95;29.82;;;;;;;1.51;92.99;99726.60;1596753;89;21188;-71
2021/01/08 03:19:39;;;;;;;59.98;30.52;;;;;;;1.46;93.44;99740.41;1596826;88;21712;-71
2021/01/08 03:22:05;;;;;;;53.15;27.82;;;;;;;1.46;93.57;99735.22;1596812;89;21251;-71
2021/01/08 03:24:31;;;;;;;49.90;27.23;;;;;;;1.47;93.37;99742.91;1596805;88;21108;-71
2021/01/08 03:26:57;;;;;;;52.37;28.63;;;;;;;1.33;93.50;99732.65;1596819;89;28793;-71
2021/01/08 03:29:22;;;;;;;52.27;27.98;;;;;;;1.41;93.19;99737.69;1597746;88;25169;-71
2021/01/08 03:31:48;;;;;;;51.40;27.50;;;;;;;1.47;93.23;99748.59;1596681;89;21378;-70
2021/01/08 03:34:14;;;;;;;49.13;27.77;;;;;;;1.44;93.12;99741.83;1596710;89;23019;-70
2021/01/08 03:36:40;;;;;;;50.20;26.93;;;;;;;1.47;92.79;99740.31;1596806;88;20981;-71
2021/01/08 03:39:05;;;;;;;56.07;29.30;;;;;;;1.37;93.10;99745.34;1596834;88;25929;-69
2021/01/08 03:41:31;;;;;;;56.28;28.25;;;;;;;1.32;93.34;99752.64;1597325;88;25188;-70
2021/01/08 03:43:57;;;;;;;48.07;26.47;;;;;;;1.41;93.25;99747.25;1596687;89;21358;-70
2021/01/08 03:46:23;;;;;;;50.13;27.33;;;;;;;1.49;92.42;99749.31;1596838;89;21976;-70
2021/01/08 03:48:48;;;;;;;46.40;26.17;;;;;;;1.49;92.61;99746.26;1596840;88;20977;-70
2021/01/08 03:51:14;;;;;;;50.08;26.20;;;;;;;1.48;92.46;99745.06;1596728;89;27741;-70
2021/01/08 03:53:40;;;;;;;45.08;24.75;;;;;;;1.43;92.52;99744.91;1597141;89;21262;-71
2021/01/08 03:56:06;;;;;;;50.33;28.40;;;;;;;1.48;92.62;99741.16;1596803;89;21711;-70
2021/01/08 03:58:32;;;;;;;45.67;23.90;;;;;;;1.40;92.81;99742.52;1595283;89;24559;-71
2021/01/08 04:00:58;;;;;;;49.20;26.50;;;;;;;1.35;93.04;99739.42;1596903;88;21186;-71
2021/01/08 04:03:24;;;;;;;48.67;26.40;;;;;;;1.34;93.57;99736.92;1596793;89;26869;-71
2021/01/08 04:05:49;;;;;;;41.90;22.60;;;;;;;1.35;93.32;99732.91;1597036;88;25248;-70
2021/01/08 04:08:15;;;;;;;40.73;22.90;;;;;;;1.45;93.03;99741.37;1596711;88;22092;-70
2021/01/08 04:10:41;;;;;;;46.63;24.03;;;;;;;1.52;92.60;99736.08;1596860;88;22537;-70
2021/01/08 04:13:07;;;;;;;47.83;25.00;;;;;;;1.41;92.75;99742.89;1596696;88;21236;-71
2021/01/08 04:15:32;;;;;;;45.60;24.52;;;;;;;1.35;92.94;99744.63;1596701;89;27213;-70
2021/01/08 04:17:58;;;;;;;47.30;24.35;;;;;;;1.31;93.25;99745.77;1598816;88;25114;-70
2021/01/08 04:20:24;;;;;;;46.70;25.07;;;;;;;1.18;93.04;99710.69;1596984;89;21193;-71
2021/01/08 04:22:49;;;;;;;44.27;24.80;;;;;;;1.42;92.99;99744.53;1596853;88;22636;-70
2021/01/08 04:25:15;;;;;;;41.90;22.90;;;;;;;1.41;93.10;99741.59;1596752;88;21603;-70
2021/01/08 04:27:41;;;;;;;48.83;25.43;;;;;;;1.36;92.92;99746.27;1598612;88;27810;-71
2021/01/08 04:30:08;;;;;;;47.98;25.60;;;;;;;1.36;93.30;99746.27;1596958;89;27473;-71
2021/01/08 04:32:33;;;;;;;51.37;25.90;;;;;;;1.49;93.16;99745.41;1597258;88;21758;-71
2021/01/08 04:34:59;;;;;;;47.67;24.57;;;;;;;1.49;92.32;99742.80;1596914;89;21000;-71
2021/01/08 04:37:25;;;;;;;48.97;24.57;;;;;;;1.51;92.05;99741.77;1596546;89;21095;-71
2021/01/08 04:39:51;;;;;;;44.00;23.93;;;;;;;1.41;92.30;99746.80;1597878;88;27835;-71
2021/01/08 04:42:16;;;;;;;46.53;25.47;;;;;;;1.49;92.27;99745.41;1593757;88;25275;-71
2021/01/08 04:44:43;;;;;;;46.87;24.80;;;;;;;1.45;91.92;99743.98;1583023;88;21461;-69
2021/01/08 04:47:13;;;;;;;41.08;23.52;;;;;;;1.37;92.11;99747.94;1596979;88;21222;-71
2021/01/08 04:49:39;;;;;;;49.58;25.57;;;;;;;1.41;92.21;99748.09;1597026;88;21264;-71
2021/01/08 04:52:09;;;;;;;50.93;26.53;;;;;;;1.47;92.17;99742.09;1600549;88;25838;-71
2021/01/08 04:54:36;;;;;;;47.48;25.43;;;;;;;1.44;91.76;99757.44;1603244;88;21227;-71
2021/01/08 04:57:03;;;;;;;42.33;24.23;;;;;;;1.43;91.68;99744.91;1596957;88;21968;-70
2021/01/08 04:59:29;;;;;;;55.35;27.05;;;;;;;1.54;91.77;99748.51;1596707;88;21262;-71
2021/01/08 05:01:55;;;;;;;52.13;26.90;;;;;;;1.42;91.38;99748.44;1596747;88;21234;-71
2021/01/08 05:04:21;;;;;;;45.80;25.23;;;;;;;1.36;91.76;99746.27;1578908;89;25890;-71
2021/01/08 05:06:48;;;;;;;48.13;25.45;;;;;;;1.31;91.99;99753.56;1596831;88;21282;-72
2021/01/08 05:09:13;;;;;;;45.52;24.25;;;;;;;1.28;92.05;99748.58;1596929;89;21214;-70
2021/01/08 05:11:39;;;;;;;50.77;25.47;;;;;;;1.28;92.08;99751.66;1596985;89;21600;-70
2021/01/08 05:14:09;;;;;;;40.87;21.67;;;;;;;1.15;92.90;99751.66;1596673;89;21715;-70
2021/01/08 05:16:37;;;;;;;51.33;26.82;;;;;;;1.30;92.45;99758.39;1596953;89;21552;-70
2021/01/08 05:19:04;;;;;;;48.23;25.40;;;;;;;1.14;92.53;99750.83;1596987;89;21272;-70
2021/01/08 05:21:30;;;;;;;47.75;25.40;;;;;;;1.16;92.65;99750.72;1597089;88;21254;-71
2021/01/08 05:23:58;;;;;;;50.12;26.17;;;;;;;1.06;92.69;99751.36;1595803;88;21234;-70
2021/01/08 05:26:24;;;;;;;46.13;23.27;;;;;;;1.14;93.06;99755.21;1596760;89;21231;-70
2021/01/08 05:28:55;;;;;;;51.63;26.83;;;;;;;1.21;92.24;99755.13;1594655;88;26415;-69
2021/01/08 05:31:25;;;;;;;43.15;22.80;;;;;;;1.20;92.52;99761.29;1597209;88;21176;-71
2021/01/08 05:33:52;;;;;;;49.13;25.43;;;;;;;1.29;92.13;99760.66;1596403;89;21248;-72
2021/01/08 05:36:18;;;;;;;50.43;23.52;;;;;;;1.23;92.16;99767.58;1596844;88;21241;-69
2021/01/08 05:38:52;;;;;;;48.08;25.12;;;;;;;1.06;92.39;99760.45;1595260;89;21225;-71
2021/01/08 05:41:19;;;;;;;49.83;25.02;;;;;;;1.10;92.74;99768.05;1596003;88;21770;-71
2021/01/08 05:43:46;;;;;;;47.05;23.70;;;;;;;1.06;92.67;99773.45;1597081;88;21223;-71
2021/01/08 05:46:22;;;;;;;47.65;23.35;;;;;;;0.98;92.78;99764.05;1596854;89;21277;-71
2021/01/08 05:48:54;;;;;;;50.05;25.20;;;;;;;1.06;92.27;99765.66;1596589;88;21255;-71
2021/01/08 05:51:22;;;;;;;56.00;26.20;;;;;;;1.04;92.83;99770.14;1595873;89;21501;-71
2021/01/08 05:53:50;;;;;;;52.10;26.05;;;;;;;0.93;92.82;99776.52;1596507;89;21215;-71
2021/01/08 05:56:17;;;;;;;47.13;24.12;;;;;;;0.99;93.05;99770.90;1597078;89;21170;-71
2021/01/08 05:58:44;;;;;;;48.13;23.45;;;;;;;0.99;92.81;99778.70;1596932;89;21646;-71
2021/01/08 06:01:10;;;;;;;46.15;22.40;;;;;;;1.03;92.74;99778.86;1597990;88;21179;-70
2021/01/08 06:03:38;;;;;;;46.63;24.20;;;;;;;0.98;92.77;99780.10;1597065;89;20993;-71
2021/01/08 06:06:03;;;;;;;49.50;22.60;;;;;;;0.95;93.39;99791.56;1596207;89;21225;-71
2021/01/08 06:08:50;;;;;;;48.63;24.93;;;;;;;0.92;93.25;99782.67;1596619;89;22389;-72
2021/01/08 06:11:28;;;;;;;47.75;23.35;;;;;;;0.87;93.13;99784.28;1598510;88;21992;-70
2021/01/08 06:13:55;;;;;;;50.45;25.52;;;;;;;1.01;93.48;99788.55;1598286;88;21913;-70
2021/01/08 06:16:21;;;;;;;;;;;;;;;1.02;93.15;99799.77;1585101;89;21241;-70
2021/01/08 06:18:51;;;;;;;48.93;22.97;;;;;;;1.02;93.14;99801.89;1614781;88;27032;-71
2021/01/08 06:21:17;;;;;;;44.03;22.40;;;;;;;1.05;92.80;99796.48;1596109;89;21195;-70
2021/01/08 06:23:47;;;;;;;48.50;23.52;;;;;;;1.09;92.96;99795.83;1596848;89;21252;-70
2021/01/08 06:26:20;;;;;;;47.65;23.90;;;;;;;1.23;92.69;99803.99;1596761;88;21222;-70
2021/01/08 06:28:50;;;;;;;48.73;25.08;;;;;;;1.17;92.15;99808.31;1597016;88;21234;-71
2021/01/08 06:31:24;;;;;;;47.00;24.20;;;;;;;1.13;92.19;99808.14;1596834;89;21179;-70
2021/01/08 06:33:59;;;;;;;49.75;24.95;;;;;;;1.22;92.15;99807.52;1597238;88;21207;-70
2021/01/08 06:36:33;;;;;;;52.33;25.23;;;;;;;1.13;92.10;99809.45;1596728;88;21247;-70
2021/01/08 06:39:11;;;;;;;46.53;23.52;;;;;;;1.19;91.90;99818.13;1597069;89;21238;-70
2021/01/08 06:41:35;;;;;;;45.75;23.60;;;;;;;1.28;91.90;99815.39;1596670;88;21715;-70
2021/01/08 06:44:04;;;;;;;53.57;25.83;;;;;;;1.17;91.46;99816.94;1596425;88;26345;-70
2021/01/08 06:46:36;;;;;;;48.68;24.65;;;;;;;1.12;91.89;99811.23;1596698;89;21266;-71
2021/01/08 06:49:07;;;;;;;53.42;26.37;;;;;;;1.16;92.04;99818.34;1596845;89;21230;-70
2021/01/08 06:51:40;;;;;;;45.70;22.77;;;;;;;1.07;92.12;99818.03;1595277;88;21260;-69
2021/01/08 06:54:10;;;;;;;51.35;23.77;;;;;;;1.02;91.87;99819.27;1596786;88;21266;-69
2021/01/08 06:56:43;;;;;;;49.42;24.05;;;;;;;1.04;92.22;99826.05;1602845;88;21194;-69
2021/01/08 06:59:16;;;;;;;46.35;22.37;;;;;;;1.01;92.14;99824.95;1599443;88;21298;-70
2021/01/08 07:01:56;;;;;;;49.23;24.15;;;;;;;1.00;92.12;99830.25;1596877;89;21207;-69
2021/01/08 07:04:31;;;;;;;47.13;23.80;;;;;;;1.08;92.29;99826.18;1596215;89;21207;-69
2021/01/08 07:07:02;;;;;;;43.25;22.22;;;;;;;1.08;91.77;99826.18;1596794;89;21203;-71
2021/01/08 07:09:32;;;;;;;40.65;20.88;;;;;;;1.13;91.80;99831.08;1596409;89;21249;-69
2021/01/08 07:11:58;;;;;;;44.77;22.10;;;;;;;1.19;91.47;99825.45;1596771;89;21699;-70
2021/01/08 07:14:24;;;;;;;47.13;23.30;;;;;;;1.12;91.24;99829.88;1595130;89;21958;-70
2021/01/08 07:16:52;;;;;;;48.97;23.83;;;;;;;1.15;91.50;99837.47;1596641;89;21634;-70
2021/01/08 07:19:20;;;;;;;49.50;25.17;;;;;;;1.15;91.33;99837.02;1596665;88;21202;-70
2021/01/08 07:21:50;;;;;;;51.98;25.35;;;;;;;1.20;91.20;99839.31;1596964;88;21218;-69
2021/01/08 07:24:19;;;;;;;45.70;24.10;;;;;;;1.22;90.99;99842.63;1596241;89;21242;-69
2021/01/08 07:26:46;;;;;;;48.17;23.12;;;;;;;1.28;90.75;99842.22;1596349;88;21293;-70
2021/01/08 07:29:12;;;;;;;40.65;20.95;;;;;;;1.31;90.76;99839.41;1596835;88;21168;-69
2021/01/08 07:31:39;;;;;;;44.37;22.87;;;;;;;1.30;90.42;99848.14;1596841;89;21000;-70
2021/01/08 07:34:07;;;;;;;50.98;24.32;;;;;;;1.24;90.14;99848.11;1596743;88;21258;-70
2021/01/08 07:36:33;;;;;;;43.45;23.65;;;;;;;1.26;90.49;99844.10;1596323;89;21231;-71
2021/01/08 07:38:59;;;;;;;42.50;22.15;;;;;;;1.36;90.35;99852.92;1596669;89;21997;-71
2021/01/08 07:41:33;;;;;;;44.43;22.10;;;;;;;1.47;90.46;99853.97;1597089;88;21573;-69
2021/01/08 07:43:59;;;;;;;44.35;22.52;;;;;;;1.56;90.18;99854.64;1596449;88;21206;-68
2021/01/08 07:46:30;;;;;;;46.03;22.40;;;;;;;1.65;90.05;99865.72;1598888;88;26854;-71
2021/01/08 07:48:57;;;;;;;49.60;24.15;;;;;;;1.71;89.21;99866.59;1596636;88;21234;-67
2021/01/08 07:51:23;;;;;;;47.48;22.42;;;;;;;1.61;88.46;99861.66;1597352;88;21800;-69
2021/01/08 07:53:52;;;;;;;43.52;23.18;;;;;;;1.73;88.71;99858.69;1596627;88;21179;-70
2021/01/08 07:56:22;;;;;;;44.40;23.60;;;;;;;1.79;88.62;99859.56;1597445;88;21227;-69
2021/01/08 07:59:05;;;;;;;49.83;24.02;;;;;;;1.78;88.27;99863.91;1596444;88;21227;-69
2021/01/08 08:01:32;;;;;;;47.90;22.65;;;;;;;1.78;88.38;99870.42;1596330;88;21263;-69
2021/01/08 08:04:09;;;;;;;44.70;22.27;;;;;;;1.85;88.31;99869.55;1596556;88;21480;-68
2021/01/08 08:06:41;;;;;;;44.30;22.98;;;;;;;1.90;88.22;99875.73;1596529;88;21274;-67
2021/01/08 08:09:09;;;;;;;43.63;22.87;;;;;;;1.86;87.54;99872.97;1596522;88;21194;-69
2021/01/08 08:11:36;;;;;;;40.98;21.37;;;;;;;1.75;87.66;99875.84;1596176;88;21249;-69
2021/01/08 08:14:04;;;;;;;43.70;21.55;;;;;;;1.73;87.84;99879.03;1596763;88;21655;-67
2021/01/08 08:16:39;;;;;;;46.10;23.00;;;;;;;1.79;87.86;99878.61;1596749;88;22066;-69
2021/01/08 08:19:10;;;;;;;51.30;24.98;;;;;;;1.86;87.78;99883.39;1597084;88;21234;-70
2021/01/08 08:21:46;;;;;;;42.38;22.82;;;;;;;1.83;87.59;99882.30;1596006;88;21230;-71
2021/01/08 08:24:16;;;;;;;44.65;23.10;;;;;;;1.91;87.81;99886.49;1597000;88;21187;-69
2021/01/08 08:26:43;;;;;;;48.33;24.75;;;;;;;1.98;87.27;99885.14;1598615;87;21238;-67
2021/01/08 08:29:15;;;;;;;47.20;22.48;;;;;;;1.89;87.64;99884.48;1602275;87;21259;-69
2021/01/08 08:31:46;;;;;;;42.58;23.20;;;;;;;1.96;87.89;99887.03;1600497;87;21241;-69
2021/01/08 08:34:29;;;;;;;36.77;20.37;;;;;;;2.06;87.57;99885.42;1600936;87;21194;-69
2021/01/08 08:36:56;;;;;;;47.10;25.15;;;;;;;1.85;86.88;99885.62;1600653;87;21209;-70
2021/01/08 08:39:22;;;;;;;;;;;;;;;1.76;87.67;99885.80;1602028;87;21242;-68
2021/01/08 08:41:48;;;;;;;43.80;23.10;;;;;;;1.77;87.50;99888.75;1602023;87;21154;-70
2021/01/08 08:44:16;;;;;;;43.33;22.87;;;;;;;1.78;87.91;99886.52;1601099;87;21754;-71
2021/01/08 08:46:56;;;;;;;42.98;23.00;;;;;;;1.93;88.11;99886.76;1600321;87;21234;-71
2021/01/08 08:49:31;;;;;;;46.05;24.25;;;;;;;1.83;87.10;99883.60;1601654;87;21238;-73
2021/01/08 08:51:57;;;;;;;50.05;24.87;;;;;;;1.98;87.10;99890.34;1600624;87;21549;-70
2021/01/08 08:54:24;;;;;;;49.20;25.10;;;;;;;1.65;87.50;99880.48;1600297;87;21942;-69
2021/01/08 08:57:01;;;;;;;48.35;23.73;;;;;;;1.65;87.65;99881.34;1599925;88;21158;-68
2021/01/08 08:59:43;;;;;;;44.85;23.20;;;;;;;1.42;87.91;99890.71;1603007;87;21163;-71
2021/01/08 09:02:10;;;;;;;49.30;25.08;;;;;;;1.43;88.46;99881.50;1606537;87;22077;-70
2021/01/08 09:04:39;;;;;;;47.17;24.05;;;;;;;1.60;88.61;99884.26;1600806;87;21246;-69
2021/01/08 09:07:13;;;;;;;47.40;24.40;;;;;;;1.63;88.06;99874.09;1587561;89;21710;-68
2021/01/08 09:09:39;;;;;;;52.27;25.40;;;;;;;1.48;87.97;99873.86;1600391;87;21293;-69
2021/01/08 09:12:13;;;;;;;47.00;23.98;;;;;;;1.55;87.86;99876.39;1585858;89;21256;-70
2021/01/08 09:14:39;;;;;;;47.90;24.43;;;;;;;1.59;88.14;99876.08;1600766;87;21254;-68
2021/01/08 09:17:13;;;;;;;51.30;25.43;;;;;;;1.59;88.37;99879.98;1600210;87;27134;-71
2021/01/08 09:19:58;;;;;;;49.48;25.05;;;;;;;1.62;88.29;99873.74;1600324;87;21703;-70
2021/01/08 09:22:23;;;;;;;43.13;22.30;;;;;;;1.74;87.71;99869.44;1598988;87;21293;-71
2021/01/08 09:24:49;;;;;;;42.73;23.27;;;;;;;1.67;86.70;99872.13;1599744;87;20952;-69
2021/01/08 09:27:15;;;;;;;48.63;24.80;;;;;;;1.62;87.56;99869.84;1582786;87;25876;-70
2021/01/08 09:29:41;;;;;;;42.47;23.77;;;;;;;1.71;87.31;99870.50;1604781;87;24292;-70
2021/01/08 09:32:07;;;;;;;46.37;23.83;;;;;;;1.75;86.95;99865.43;1601160;87;21266;-68
2021/01/08 09:34:34;;;;;;;40.98;22.82;;;;;;;1.85;86.85;99864.34;1608617;87;21257;-68
2021/01/08 09:37:15;;;;;;;43.38;23.10;;;;;;;1.88;85.94;99865.88;1605802;87;21214;-67
2021/01/08 09:39:42;;;;;;;44.63;24.02;;;;;;;1.90;85.92;99864.02;1606879;87;21563;-70
2021/01/08 09:42:08;;;;;;;46.08;24.75;;;;;;;1.84;85.77;99869.66;1606901;87;21264;-69
2021/01/08 09:44:35;;;;;;;40.45;22.13;;;;;;;1.84;85.93;99868.35;1606888;89;21661;-70
2021/01/08 09:47:04;;;;;;;38.63;21.25;;;;;;;1.89;85.90;99863.16;1608540;87;21226;-70
2021/01/08 09:49:43;;;;;;;48.78;24.72;;;;;;;1.88;85.97;99865.88;1608093;87;21544;-70
2021/01/08 09:52:12;;;;;;;39.03;22.45;;;;;;;1.91;85.87;99863.06;1607350;89;21241;-67
2021/01/08 09:54:51;;;;;;;46.63;22.80;;;;;;;2.06;85.71;99850.26;1607447;89;21277;-66
2021/01/08 09:57:30;;;;;;;44.20;23.67;;;;;;;2.07;85.28;99853.23;1607357;88;21981;-66
2021/01/08 09:59:58;;;;;;;39.98;21.97;;;;;;;2.01;85.31;99847.16;1617554;87;21237;-67
2021/01/08 10:02:42;;;;;;;44.33;24.10;;;;;;;2.02;84.92;99846.68;1650204;86;21176;-68
2021/01/08 10:05:25;;;;;;;41.23;21.40;;;;;;;2.03;84.96;99851.78;1651428;86;21242;-67
2021/01/08 10:07:51;;;;;;;42.78;22.75;;;;;;;1.97;84.66;99852.21;1649678;86;21649;-68
2021/01/08 10:10:32;;;;;;;43.93;23.73;;;;;;;1.89;85.30;99858.44;1650030;86;21627;-70
2021/01/08 10:12:58;;;;;;;42.05;22.40;;;;;;;1.93;85.24;99848.18;1650810;86;21227;-69
2021/01/08 10:15:48;;;;;;;43.85;23.10;;;;;;;2.10;83.93;99850.41;1650548;86;21203;-69
2021/01/08 10:18:22;;;;;;;42.23;21.95;;;;;;;2.19;83.93;99850.69;1649545;86;21219;-71
2021/01/08 10:20:51;;;;;;;41.85;22.32;;;;;;;2.31;83.80;99848.50;1649681;86;21211;-68
2021/01/08 10:23:20;;;;;;;47.48;23.60;;;;;;;2.19;83.85;99851.99;1649659;86;21260;-67
2021/01/08 10:25:46;;;;;;;42.48;23.05;;;;;;;2.13;83.82;99857.19;1650241;86;21207;-67
2021/01/08 10:28:19;;;;;;;39.37;22.20;;;;;;;2.12;83.58;99847.22;1657571;84;20984;-67
2021/01/08 10:30:47;;;;;;;43.33;22.02;;;;;;;2.06;83.20;99839.02;1654923;86;21182;-68
2021/01/08 10:33:13;;;;;;;40.63;21.68;;;;;;;2.09;83.20;99843.53;1654869;86;21204;-67
2021/01/08 10:35:48;;;;;;;45.33;22.80;;;;;;;1.93;83.43;99833.37;1654178;86;21255;-68
2021/01/08 10:38:14;;;;;;;37.75;20.37;;;;;;;2.11;83.61;99841.67;1654212;86;21228;-68
2021/01/08 10:40:39;;;;;;;39.87;21.57;;;;;;;2.19;83.41;99833.30;1655599;84;21038;-69
2021/01/08 10:43:05;;;;;;;42.30;22.47;;;;;;;2.29;82.82;99834.28;1654936;86;27775;-68
2021/01/08 10:45:31;;;;;;;42.33;22.53;;;;;;;2.30;82.49;99829.89;1654982;86;25215;-68
2021/01/08 10:47:57;;;;;;;40.27;20.80;;;;;;;2.38;82.28;99826.29;1656290;84;21017;-68
2021/01/08 10:50:22;;;;;;;36.57;19.00;;;;;;;2.45;81.85;99827.48;1656523;84;23569;-67
2021/01/08 10:52:48;;;;;;;42.90;22.07;;;;;;;2.45;81.41;99822.27;1655414;86;24662;-68
2021/01/08 10:55:14;;;;;;;34.95;20.68;;;;;;;2.46;81.76;99826.55;1655533;85;29883;-70
2021/01/08 10:57:40;;;;;;;34.03;19.27;;;;;;;2.23;80.48;99829.52;1655237;86;27628;-70
2021/01/08 11:00:09;;;;;;;40.00;21.67;;;;;;;2.23;80.90;99832.13;1655744;84;21930;-70
2021/01/08 11:02:36;;;;;;;41.13;21.55;;;;;;;2.27;81.24;99831.42;1654960;84;21096;-69
2021/01/08 11:05:04;;;;;;;38.30;19.92;;;;;;;2.33;81.31;99827.07;1661837;84;21251;-69
2021/01/08 11:07:33;;;;;;;38.45;21.73;;;;;;;2.31;81.31;99828.48;1660070;84;21616;-69
2021/01/08 11:10:00;;;;;;;38.60;20.90;;;;;;;2.30;81.18;99827.30;1652586;85;21225;-69
2021/01/08 11:12:27;;;;;;;35.25;19.35;;;;;;;2.25;80.67;99822.89;1654825;86;21216;-68
2021/01/08 11:14:56;;;;;;;36.68;19.90;;;;;;;1.99;81.16;99826.91;1655067;86;21598;-68
2021/01/08 11:17:22;;;;;;;37.50;20.43;;;;;;;2.19;81.23;99835.06;1655571;86;21641;-67
2021/01/08 11:19:48;;;;;;;33.53;18.10;;;;;;;2.27;81.06;99827.52;1654225;85;28470;-69
2021/01/08 11:22:14;;;;;;;38.45;21.12;;;;;;;2.27;81.07;99828.37;1653863;86;25207;-69
2021/01/08 11:24:40;;;;;;;37.75;20.50;;;;;;;2.31;80.90;99822.45;1653621;85;21234;-69
2021/01/08 11:27:06;;;;;;;34.07;19.27;;;;;;;2.42;81.29;99820.37;1659791;84;23564;-68
2021/01/08 11:29:33;;;;;;;40.93;21.53;;;;;;;2.38;81.00;99825.44;1637113;86;21922;-67
2021/01/08 11:31:59;;;;;;;37.20;19.50;;;;;;;2.31;81.05;99828.48;1653008;85;21163;-68